Flight Track Log - Related Links

Times and Time Zones

All times are in EDT time to prevent confusion due to time zone crossing. See the AAL963 flight status page for this flight to view local times or setup timezone preferences in your user account.

Time Position Orientation Groundspeed Altitude Reporting Facility
EDT Latitude Longitude Course Direction KTS MPH feet Rate Location/Type
Sun 01:58:06 AM 32.8380 -97.0470 165° South 203 234 2,500  Level FlightAware ADS-B
Sun 01:58:35 AM 32.8100 -97.0380 165° South 241 277 2,900 1,180 Climbing FlightAware ADS-B
Sun 01:59:07 AM 32.7750 -97.0260 164° South 266 306 3,700 1,667 Climbing FlightAware ADS-B
Sun 01:59:29 AM 32.7590 -96.9970 123° Southeast 274 315 4,400 1,935 Climbing FlightAware ADS-B
Sun 01:59:38 AM 32.7580 -96.9830 95° East 277 319 4,700 2,233 Climbing FlightAware ADS-B
Sun 02:00:12 AM 32.7594 -96.9307 88° East 285 328 6,000 2,106 Climbing FlightAware ADS-B
Sun 02:01:12 AM 32.7609 -96.8302 89° East 311 358 8,000 2,104 Climbing FlightAware ADS-B
Sun 02:01:29 AM 32.7609 -96.8000 90° East 315 362 8,700 2,432 Climbing FlightAware ADS-B
Sun 02:01:49 AM 32.7610 -96.7647 90° East 318 366 9,500 1,846 Climbing FlightAware ADS-B
Sun 02:02:21 AM 32.7608 -96.7202 90° East 332 382 10,300 1,898 Climbing FlightAware ADS-B
Sun 02:03:27 AM 32.7610 -96.5760 109° East 370 426 12,600 2,186 Climbing FlightAware ADS-B
Sun 02:04:19 AM 32.7609 -96.4709 90° East 383 441 14,600 2,278 Climbing FlightAware ADS-B
Sun 02:05:15 AM 32.7600 -96.3520 90° East 398 458 16,700 2,270 Climbing FlightAware ADS-B
Sun 02:05:33 AM 32.7572 -96.3113 95° East 402 463 17,400 2,172 Climbing FlightAware ADS-B
Sun 02:06:13 AM 32.7471 -96.2409 100° East 411 473 18,800 2,055 Climbing FlightAware ADS-B
Sun 02:06:46 AM 32.7321 -96.1466 101° East 420 483 19,900 1,810 Climbing FlightAware ADS-B
Sun 02:07:16 AM 32.7209 -96.0778 101° East 430 495 20,700 1,406 Climbing FlightAware ADS-B
Sun 02:07:50 AM 32.7090 -95.9969 100° East 446 513 21,400 1,224 Climbing FlightAware ADS-B
Sun 02:08:05 AM 32.7089 -95.9590 90° East 457 526 21,700 2,000 Climbing FlightAware ADS-B
Sun 02:08:53 AM 32.7412 -95.8494 71° East 454 522 23,500 2,219 Climbing FlightAware ADS-B
Sun 02:09:18 AM 32.7700 -95.7970 57° Northeast 455 524 24,400 1,800 Climbing FlightAware ADS-B
Sun 02:09:33 AM 32.7770 -95.7845 56° Northeast 454 522 24,700 1,742 Climbing FlightAware ADS-B
Sun 02:09:49 AM 32.8065 -95.7327 56° Northeast 457 526 25,300 1,696 Climbing FlightAware ADS-B
Sun 02:10:19 AM 32.8422 -95.6690 56° Northeast 462 532 26,000 1,548 Climbing FlightAware ADS-B
Sun 02:10:51 AM 32.8795 -95.6013 57° Northeast 464 534 26,900 1,291 Climbing FlightAware ADS-B
Sun 02:11:38 AM 32.9320 -95.4980 59° Northeast 475 547 27,700 1,043 Climbing FlightAware ADS-B
Sun 02:12:00 AM 32.9450 -95.4430 74° East 479 551 28,100 1,050 Climbing FlightAware ADS-B
Sun 02:12:18 AM 32.9500 -95.3945 83° East 480 552 28,400 1,071 Climbing FlightAware ADS-B
Sun 02:12:28 AM 32.9492 -95.3670 92° East 478 550 28,600 1,108 Climbing FlightAware ADS-B
Sun 02:13:23 AM 32.9160 -95.2306 106° East 479 551 29,600 1,059 Climbing FlightAware ADS-B
Sun 02:13:53 AM 32.8931 -95.1538 110° East 485 558 30,100 1,059 Climbing FlightAware ADS-B
Sun 02:14:31 AM 32.8645 -95.0587 110° East 492 566 30,800 -261 Climbing FlightAware ADS-B
Sun 02:15:02 AM 32.8530 -95.0140 107° East 483 556 29,800 -896 Descending FlightAware ADS-B
Sun 02:15:38 AM 32.8310 -94.9370 109° East 483 556 29,800  Level FlightAware ADS-B
Sun 02:16:15 AM 32.8080 -94.8580 109° East 483 556 29,800 2,270 Level FlightAware ADS-B
Sun 02:16:52 AM 32.7452 -94.6960 115° Southeast 516 594 32,600 3,444 Climbing FlightAware ADS-B
Sun 02:17:09 AM 32.7237 -94.6545 122° Southeast 513 590 32,900 500 Climbing FlightAware ADS-B
Sun 02:17:40 AM 32.6815 -94.5817 125° Southeast 521 600 33,000 85 Climbing FlightAware ADS-B
Sun 02:18:20 AM 32.6280 -94.4900 125° Southeast 523 602 33,000  Level FlightAware ADS-B
Sun 02:18:56 AM 32.5773 -94.4034 125° Southeast 523 602 33,000  Level FlightAware ADS-B
Sun 02:19:27 AM 32.5342 -94.3300 125° Southeast 522 601 33,000  Level FlightAware ADS-B
Sun 02:19:58 AM 32.4923 -94.2587 125° Southeast 525 604 33,000  Level FlightAware ADS-B
Sun 02:20:29 AM 32.4481 -94.1834 125° Southeast 523 602 33,000  Level FlightAware ADS-B
Sun 02:20:59 AM 32.4069 -94.1136 125° Southeast 518 596 33,000  Level FlightAware ADS-B
Sun 02:21:30 AM 32.3649 -94.0427 125° Southeast 515 593 33,000  Level FlightAware ADS-B
Sun 02:22:01 AM 32.3229 -93.9719 125° Southeast 513 590 33,000  Level FlightAware ADS-B
Sun 02:22:34 AM 32.2776 -93.8960 125° Southeast 512 589 33,000  Level FlightAware ADS-B
Sun 02:23:09 AM 32.2306 -93.8168 125° Southeast 514 592 33,000  Level FlightAware ADS-B
Sun 02:23:39 AM 32.1893 -93.7475 125° Southeast 515 593 33,000  Level FlightAware ADS-B
Sun 02:24:09 AM 32.1478 -93.6783 125° Southeast 515 593 33,000  Level FlightAware ADS-B
Sun 02:24:47 AM 32.0953 -93.5906 125° Southeast 515 593 33,000  Level FlightAware ADS-B
Sun 02:25:18 AM 32.0539 -93.5217 125° Southeast 514 592 33,000  Level FlightAware ADS-B
Sun 02:26:01 AM 32.0980 -93.5600 324° Northwest 523 602 33,000  Level FlightAware ADS-B
Sun 02:26:26 AM 32.0690 -93.5090 124° Southeast 523 602 33,000  Level FlightAware ADS-B
Sun 02:27:14 AM 32.0140 -93.4130 124° Southeast 523 602 33,000  Level FlightAware ADS-B
Sun 02:28:14 AM 31.9450 -93.2920 124° Southeast 523 602 33,000  Level FlightAware ADS-B
Sun 02:28:57 AM 31.7508 -93.0203 130° Southeast 521 600 33,000  Level FlightAware ADS-B
Sun 02:29:46 AM 31.6978 -92.9335 126° Southeast 523 602 33,000  Level FlightAware ADS-B
Sun 02:30:37 AM 31.6093 -92.7881 126° Southeast 522 601 33,000  Level FlightAware ADS-B
Sun 02:31:21 AM 31.5477 -92.6871 126° Southeast 526 605 33,000  Level FlightAware ADS-B
Sun 02:32:50 AM 31.4209 -92.4799 126° Southeast 533 613 33,000  Level FlightAware ADS-B
Sun 02:33:21 AM 31.3764 -92.4077 126° Southeast 530 610 33,000  Level FlightAware ADS-B
Sun 02:34:20 AM 31.2932 -92.2727 126° Southeast 528 608 33,000  Level FlightAware ADS-B
Sun 02:35:17 AM 31.2137 -92.1442 126° Southeast 515 593 33,000  Level FlightAware ADS-B
Sun 02:36:00 AM 31.1536 -92.0473 126° Southeast 512 589 33,000  Level FlightAware ADS-B
Sun 02:40:19 AM 30.7960 -91.4760 126° Southeast 515 593 33,000  Level FlightAware ADS-B
Sun 02:41:07 AM 30.7320 -91.3740 126° Southeast 516 594 33,000  Level FlightAware ADS-B
Sun 02:42:07 AM 30.6410 -91.2300 126° Southeast 517 595 33,000  Level FlightAware ADS-B
Sun 02:42:20 AM 30.6270 -91.2090 128° Southeast 517 595 33,000  Level FlightAware ADS-B
Sun 02:42:46 AM 30.5940 -91.1560 126° Southeast 518 596 33,000  Level FlightAware ADS-B
Sun 02:43:40 AM 30.5140 -91.0310 127° Southeast 521 600 33,000  Level FlightAware ADS-B
Sun 02:45:09 AM 30.3800 -90.8220 127° Southeast 523 602 33,000  Level FlightAware ADS-B
Sun 02:45:39 AM 30.3370 -90.7540 126° Southeast 523 602 33,000  Level FlightAware ADS-B
Sun 02:46:25 AM 30.2710 -90.6520 127° Southeast 524 603 33,000  Level FlightAware ADS-B
Sun 02:47:00 AM 30.2210 -90.5730 126° Southeast 523 602 33,000  Level FlightAware ADS-B
Sun 02:47:41 AM 30.1610 -90.4810 127° Southeast 522 601 33,000  Level FlightAware ADS-B
Sun 02:48:26 AM 30.0980 -90.3830 127° Southeast 523 602 33,000  Level FlightAware ADS-B
Sun 02:49:01 AM 30.0460 -90.3040 127° Southeast 524 603 33,000  Level FlightAware ADS-B
Sun 02:50:03 AM 29.9540 -90.1620 127° Southeast 525 604 33,000  Level FlightAware ADS-B
Sun 02:50:57 AM 29.8750 -90.0410 127° Southeast 525 604 33,000  Level FlightAware ADS-B
Sun 02:51:49 AM 29.7980 -89.9290 128° Southeast 522 601 33,000  Level FlightAware ADS-B
Sun 02:52:53 AM 29.6960 -89.7930 131° Southeast 524 603 33,000  Level FlightAware ADS-B
Sun 02:53:39 AM 29.6250 -89.6980 131° Southeast 526 605 33,000  Level FlightAware ADS-B
Sun 02:54:09 AM 29.5760 -89.6310 130° Southeast 528 608 33,000  Level FlightAware ADS-B
Sun 02:54:44 AM 29.5220 -89.5570 130° Southeast 528 608 33,000  Level FlightAware ADS-B
Sun 02:55:29 AM 29.4500 -89.4600 130° Southeast 526 605 33,000  Level FlightAware ADS-B
Sun 02:55:51 AM 29.4160 -89.4140 130° Southeast 526 605 33,000  Level FlightAware ADS-B
Sun 02:57:02 AM 29.3060 -89.2650 130° Southeast 527 606 33,000  Level FlightAware ADS-B
Sun 02:58:01 AM 29.2110 -89.1380 131° Southeast 527 606 33,000  Level FlightAware ADS-B
Sun 02:58:30 AM 29.1680 -89.0810 131° Southeast 527 606 33,000  Level FlightAware ADS-B
Sun 02:58:59 AM 29.1210 -89.0180 130° Southeast 528 608 33,000  Level FlightAware ADS-B
Sun 02:59:57 AM 29.0260 -88.8920 131° Southeast 527 606 33,000  Level FlightAware ADS-B
Sun 03:00:33 AM 28.9690 -88.8160 131° Southeast 527 606 33,000  Level FlightAware ADS-B
Sun 03:01:09 AM 28.9120 -88.7410 131° Southeast 526 605 33,000  Level FlightAware ADS-B
Sun 03:02:05 AM 28.8230 -88.6220 130° Southeast 528 608 33,000  Level FlightAware ADS-B
Sun 03:02:41 AM 28.7650 -88.5440 130° Southeast 528 608 33,000  Level FlightAware ADS-B
Sun 03:03:09 AM 28.7220 -88.4870 131° Southeast 530 610 33,000  Level FlightAware ADS-B
Sun 03:03:43 AM 28.6670 -88.4120 130° Southeast 532 612 33,000  Level FlightAware ADS-B
Sun 03:04:11 AM 28.6220 -88.3520 131° Southeast 534 615 33,000  Level FlightAware ADS-B
Sun 03:04:45 AM 28.5680 -88.2810 131° Southeast 535 616 33,000  Level FlightAware ADS-B
Sun 03:05:15 AM 28.5200 -88.2160 130° Southeast 536 617 33,000  Level FlightAware ADS-B
Sun 03:05:47 AM 28.4680 -88.1480 131° Southeast 541 623 33,000  Level FlightAware ADS-B
Sun 03:06:17 AM 28.4200 -88.0840 130° Southeast 545 627 33,000  Level FlightAware ADS-B
Sun 03:07:03 AM 28.3530 -87.9740 125° Southeast 561 646 33,000  Level FlightAware ADS-B
Sun 03:07:37 AM 28.3150 -87.8820 115° Southeast 570 656 33,000  Level FlightAware ADS-B
Sun 03:08:17 AM 28.2770 -87.7720 111° Southeast 571 657 33,000  Level FlightAware ADS-B
Sun 03:08:57 AM 28.2390 -87.6610 111° Southeast 567 652 33,000  Level FlightAware ADS-B
Sun 03:09:25 AM 28.2120 -87.5810 111° Southeast 565 650 33,000  Level FlightAware ADS-B
Sun 03:10:30 AM 28.1530 -87.4070 111° Southeast 567 652 33,000  Level FlightAware ADS-B
Sun 03:11:01 AM 28.1210 -87.3140 111° Southeast 568 654 33,000  Level FlightAware ADS-B
Sun 03:11:31 AM 28.0930 -87.2310 111° Southeast 570 656 33,000  Level FlightAware ADS-B
Sun 03:12:31 AM 28.0360 -87.0660 111° Southeast 569 655 33,000  Level FlightAware ADS-B
Sun 03:12:59 AM 28.0090 -86.9850 111° Southeast 569 655 33,000  Level FlightAware ADS-B
Sun 03:13:29 AM 27.9820 -86.9060 111° Southeast 569 655 33,000  Level FlightAware ADS-B
Sun 03:14:01 AM 27.9510 -86.8180 112° Southeast 568 654 33,000  Level FlightAware ADS-B
Sun 03:14:26 AM 27.9280 -86.7520 112° Southeast 567 652 33,000  Level FlightAware ADS-B
Sun 03:15:34 AM 27.8610 -86.5650 112° Southeast 565 650 33,000  Level FlightAware ADS-B
Sun 03:16:17 AM 27.8170 -86.4430 112° Southeast 565 650 33,000  Level FlightAware ADS-B
Sun 03:16:42 AM 27.7970 -86.3870 112° Southeast 566 651 33,000  Level FlightAware ADS-B
Sun 03:17:12 AM 27.7630 -86.2940 112° Southeast 566 651 33,000  Level FlightAware ADS-B
Sun 03:17:47 AM 27.7290 -86.1990 112° Southeast 567 652 33,000  Level FlightAware ADS-B
Sun 03:18:28 AM 27.6940 -86.1020 112° Southeast 567 652 33,000  Level FlightAware ADS-B
Sun 03:19:26 AM 27.6330 -85.9350 112° Southeast 563 648 33,000  Level FlightAware ADS-B
Sun 03:19:56 AM 27.6020 -85.8520 113° Southeast 564 649 33,000  Level FlightAware ADS-B
Sun 03:21:01 AM 27.5390 -85.6800 112° Southeast 563 648 33,000  Level FlightAware ADS-B
Sun 03:22:02 AM 27.4910 -85.5370 111° Southeast 563 648 33,000  Level FlightAware ADS-B
Sun 03:22:21 AM 27.4580 -85.4610 116° Southeast 570 656 33,000  Level FlightAware ADS-B
Sun 03:23:30 AM 27.3970 -85.2880 112° Southeast 561 646 33,000  Level FlightAware ADS-B
Sun 03:24:18 AM 27.3370 -85.1330 114° Southeast 565 650 33,000  Level FlightAware ADS-B
Sun 03:24:46 AM 27.3090 -85.0590 113° Southeast 562 647 33,000  Level FlightAware ADS-B
Sun 03:25:51 AM 27.2440 -84.8850 113° Southeast 558 642 33,000  Level FlightAware ADS-B
Sun 03:26:26 AM 27.2120 -84.8010 113° Southeast 558 642 33,000  Level FlightAware ADS-B
Sun 03:26:56 AM 27.1820 -84.7200 113° Southeast 558 642 33,000  Level FlightAware ADS-B
Sun 03:27:36 AM 27.1490 -84.6290 112° Southeast 558 642 33,000  Level FlightAware ADS-B
Sun 03:28:11 AM 27.1010 -84.5060 114° Southeast 560 644 33,000  Level FlightAware ADS-B
Sun 03:28:56 AM 27.0570 -84.3910 113° Southeast 562 647 33,000  Level FlightAware ADS-B
Sun 03:29:36 AM 27.0240 -84.2990 112° Southeast 562 647 33,000  Level FlightAware ADS-B
Sun 03:30:12 AM 26.9940 -84.2160 112° Southeast 562 647 33,000  Level FlightAware ADS-B
Sun 03:30:41 AM 26.9490 -84.1070 115° Southeast 567 652 33,000  Level FlightAware ADS-B
Sun 03:31:18 AM 26.9090 -84.0020 113° Southeast 565 650 33,000  Level FlightAware ADS-B
Sun 03:31:55 AM 26.8710 -83.9040 113° Southeast 564 649 33,000  Level FlightAware ADS-B
Sun 03:32:22 AM 26.8420 -83.8280 113° Southeast 563 648 33,000  Level FlightAware ADS-B
Sun 03:32:53 AM 26.8110 -83.7490 114° Southeast 563 648 33,000  Level FlightAware ADS-B
Sun 03:33:43 AM 26.7590 -83.6130 113° Southeast 563 648 33,000  Level FlightAware ADS-B
Sun 03:34:19 AM 26.7210 -83.5150 113° Southeast 564 649 33,000  Level FlightAware ADS-B
Sun 03:34:52 AM 26.6880 -83.4300 113° Southeast 563 648 33,000  Level FlightAware ADS-B
Sun 03:35:33 AM 26.6450 -83.3210 114° Southeast 562 647 33,000  Level FlightAware ADS-B
Sun 03:36:09 AM 26.6070 -83.2240 114° Southeast 562 647 33,000  Level FlightAware ADS-B
Sun 03:36:44 AM 26.5710 -83.1310 113° Southeast 560 644 33,000  Level FlightAware ADS-B
Sun 03:37:44 AM 26.5081 -82.9712 114° Southeast 559 643 33,000  Level FlightAware ADS-B
Sun 03:39:15 AM 26.4149 -82.7353 114° Southeast 546 628 33,000  Level FlightAware ADS-B
Sun 03:39:45 AM 26.3851 -82.6602 114° Southeast 543 625 33,000  Level FlightAware ADS-B
Sun 03:40:16 AM 26.3527 -82.5788 114° Southeast 543 625 33,000  Level FlightAware ADS-B
Sun 03:41:00 AM 26.3097 -82.4707 114° Southeast 541 623 33,000  Level FlightAware ADS-B
Sun 03:41:30 AM 26.2772 -82.3893 114° Southeast 538 619 33,000  Level FlightAware ADS-B
Sun 03:42:00 AM 26.2473 -82.3148 114° Southeast 535 616 33,000  Level FlightAware ADS-B
Sun 03:42:30 AM 26.2201 -82.2467 114° Southeast 535 616 33,000  Level FlightAware ADS-B
Sun 03:43:02 AM 26.1856 -82.1607 114° Southeast 536 617 33,000  Level FlightAware ADS-B
Sun 03:43:32 AM 26.1546 -82.0835 114° Southeast 535 616 33,000  Level FlightAware ADS-B
Sun 03:44:02 AM 26.1245 -82.0088 114° Southeast 534 615 33,000  Level FlightAware ADS-B
Sun 03:44:32 AM 26.0945 -81.9347 114° Southeast 535 616 33,000  Level FlightAware ADS-B
Sun 03:45:04 AM 26.0624 -81.8553 114° Southeast 536 617 33,000  Level FlightAware ADS-B
Sun 03:45:38 AM 26.0266 -81.7667 114° Southeast 538 619 33,000  Level FlightAware ADS-B
Sun 03:46:31 AM 25.9730 -81.6340 114° Southeast 539 620 33,000  Level FlightAware ADS-B
Sun 03:47:04 AM 25.9400 -81.5530 114° Southeast 536 617 33,000  Level FlightAware ADS-B
Sun 03:48:08 AM 25.8733 -81.3902 114° Southeast 534 615 33,000  Level FlightAware ADS-B
Sun 03:49:07 AM 25.8130 -81.2430 114° Southeast 533 613 33,000  Level FlightAware ADS-B
Sun 03:49:39 AM 25.7810 -81.1660 115° Southeast 531 611 33,000  Level FlightAware ADS-B
Sun 03:50:12 AM 25.7470 -81.0820 114° Southeast 530 610 33,000  Level FlightAware ADS-B
Sun 03:50:53 AM 25.7060 -80.9840 115° Southeast 526 605 33,000  Level FlightAware ADS-B
Sun 03:51:23 AM 25.6760 -80.9100 114° Southeast 527 606 33,000  Level FlightAware ADS-B
Sun 03:51:48 AM 25.6500 -80.8480 115° Southeast 529 609 33,000  Level FlightAware ADS-B
Sun 03:52:29 AM 25.6090 -80.7500 115° Southeast 530 610 33,000  Level FlightAware ADS-B
Sun 03:53:03 AM 25.5720 -80.6600 114° Southeast 529 609 33,000  Level FlightAware ADS-B
Sun 03:53:48 AM 25.5260 -80.5500 115° Southeast 526 605 33,000  Level FlightAware ADS-B
Sun 03:54:13 AM 25.5010 -80.4910 115° Southeast 524 603 33,000  Level FlightAware ADS-B
Sun 03:54:33 AM 25.4800 -80.4400 115° Southeast 524 603 33,000  Level FlightAware ADS-B
Sun 03:55:23 AM 25.4300 -80.3200 115° Southeast 521 600 33,000  Level FlightAware ADS-B
Sun 03:55:58 AM 25.3940 -80.2350 115° Southeast 520 598 33,000  Level FlightAware ADS-B
Sun 03:56:33 AM 25.3640 -80.1440 110° East 531 611 33,000  Level FlightAware ADS-B
Sun 03:56:53 AM 25.3600 -80.0910 95° East 543 625 33,000  Level FlightAware ADS-B
Sun 03:57:33 AM 25.3770 -79.9810 80° East 557 641 33,000  Level FlightAware ADS-B
Sun 03:58:13 AM 25.4100 -79.8770 71° East 558 642 33,000  Level FlightAware ADS-B
Sun 03:58:53 AM 25.4060 -79.7620 92° East 535 616 33,000  Level FlightAware ADS-B
Sun 03:59:49 AM 25.3500 -79.6250 114° Southeast 528 608 33,000  Level FlightAware ADS-B
Sun 04:00:15 AM 25.3270 -79.5670 114° Southeast 526 605 33,000  Level FlightAware ADS-B
Sun 04:00:51 AM 25.2910 -79.4830 115° Southeast 524 603 33,000  Level FlightAware ADS-B
Sun 04:01:27 AM 25.2600 -79.4080 115° Southeast 524 603 33,000  Level FlightAware ADS-B
Sun 04:01:51 AM 25.2390 -79.3590 115° Southeast 524 603 33,000  Level FlightAware ADS-B
Sun 04:03:03 AM 25.1610 -79.1620 114° Southeast 549 632 33,000  Level FlightAware ADS-B
Sun 04:03:43 AM 25.1600 -79.0420 91° East 550 633 33,000  Level FlightAware ADS-B
Sun 04:04:38 AM 25.1600 -78.8920 90° East 549 632 33,000  Level FlightAware ADS-B
Sun 04:05:17 AM 25.1600 -78.7990 90° East 549 632 33,000  Level FlightAware ADS-B
Sun 04:06:24 AM 25.1600 -78.5910 90° East 548 631 33,000  Level FlightAware ADS-B
Sun 04:06:44 AM 25.1540 -78.5450 98° East 544 626 33,000  Level FlightAware ADS-B
Sun 04:07:44 AM 25.0790 -78.4040 120° Southeast 515 593 33,000  Level FlightAware ADS-B
Sun 04:08:09 AM 25.0500 -78.3590 125° Southeast 515 593 33,000  Level FlightAware ADS-B
Sun 04:08:37 AM 25.0190 -78.3070 123° Southeast 515 593 33,000  Level FlightAware ADS-B
Sun 04:09:25 AM 24.9640 -78.2180 124° Southeast 515 593 33,000  Level FlightAware ADS-B
Sun 04:10:26 AM 24.8950 -78.1050 124° Southeast 515 593 33,000  Level FlightAware ADS-B
Sun 04:11:02 AM 24.8540 -78.0390 124° Southeast 515 593 33,000  Level FlightAware ADS-B
Sun 04:11:34 AM 24.8180 -77.9790 123° Southeast 515 593 33,000  Level FlightAware ADS-B
Sun 04:11:58 AM 24.7910 -77.9350 124° Southeast 515 593 33,000  Level FlightAware ADS-B
Sun 04:12:46 AM 24.7370 -77.8460 124° Southeast 515 593 33,000  Level FlightAware ADS-B
Sun 04:13:23 AM 24.6950 -77.7780 124° Southeast 515 593 33,000  Level FlightAware ADS-B
Sun 04:13:59 AM 24.6540 -77.7110 124° Southeast 515 593 33,000  Level FlightAware ADS-B
Sun 04:14:36 AM 24.6120 -77.6430 124° Southeast 515 593 33,000  Level FlightAware ADS-B
Sun 04:15:46 AM 24.5330 -77.5140 124° Southeast 515 593 33,000  Level FlightAware ADS-B
Sun 04:16:23 AM 24.4910 -77.4450 124° Southeast 515 593 33,000  Level FlightAware ADS-B
Sun 04:17:23 AM 24.4230 -77.3350 124° Southeast 515 593 33,000  Level FlightAware ADS-B
Sun 04:18:28 AM 24.0589 -77.1981 124° Southeast 498 573 33,000  Level Miami Center
Sun 04:19:29 AM 23.9650 -77.0839 132° Southeast 498 573 33,000  Level Miami Center
Sun 04:20:27 AM 23.8669 -76.9747 134° Southeast 503 579 33,000  Level Miami Center
Sun 04:21:26 AM 23.7856 -76.8747 132° Southeast 497 572 33,000  Level Miami Center
Sun 04:22:26 AM 23.6894 -76.7658 134° Southeast 502 578 33,000  Level Miami Center
Sun 04:23:27 AM 23.5953 -76.6594 134° Southeast 497 572 33,000  Level Miami Center
Sun 04:24:26 AM 23.5011 -76.5553 135° Southeast 492 566 33,000  Level Miami Center
Sun 04:25:26 AM 23.4089 -76.4469 133° Southeast 487 560 33,000  Level Miami Center
Sun 04:26:26 AM 23.3122 -76.3386 134° Southeast 487 560 33,000 -300 Level Miami Center
Sun 04:27:26 AM 23.2200 -76.2350 134° Southeast 487 560 32,400 -700 Descending Miami Center
Sun 04:28:26 AM 23.1256 -76.1292 134° Southeast 487 560 31,600 -689 Descending Miami Center
Sun 04:29:28 AM 23.0225 -76.0103 133° Southeast 487 560 31,000 -298 Descending Miami Center
Sun 04:30:27 AM 22.9278 -75.9047 134° Southeast 487 560 31,000  Level Miami Center
Sun 04:31:26 AM 22.8350 -75.7972 133° Southeast 487 560 31,000  Level Miami Center
Sun 04:32:27 AM 22.7383 -75.6900 134° Southeast 487 560 31,000  Level Miami Center
Sun 04:33:26 AM 22.6433 -75.5850 134° Southeast 487 560 31,000  Level Miami Center
Sun 04:34:26 AM 22.5483 -75.4781 134° Southeast 487 560 31,000  Level Miami Center
Sun 04:35:29 AM 22.4556 -75.3733 134° Southeast 487 560 31,000  Level Miami Center
Sun 04:36:26 AM 22.3583 -75.2689 135° Southeast 487 560 31,000  Level Miami Center
Sun 04:37:26 AM 22.2631 -75.1625 134° Southeast 487 560 31,000  Level Miami Center
Sun 04:38:26 AM 22.1658 -75.0583 135° Southeast 487 560 31,000  Level Miami Center
Sun 04:39:26 AM 22.0622 -74.9611 139° Southeast 487 560 31,000  Level Miami Center
Sun 04:40:27 AM 21.9608 -74.8664 139° Southeast 487 560 31,000  Level Miami Center
Sun 04:41:27 AM 21.8511 -74.7806 144° Southeast 487 560 31,000 504 Level Miami Center
Sun 04:42:26 AM 21.7372 -74.6997 147° Southeast 487 560 32,000 900 Climbing Miami Center
Sun 04:43:27 AM 21.6481 -74.6075 136° Southeast 487 560 32,800 443 Climbing Miami Center
Sun 04:44:28 AM 21.5464 -74.5086 138° Southeast 492 566 32,900 50 Climbing Miami Center
Sun 04:45:28 AM 21.4425 -74.4103 139° Southeast 492 566 32,900  Level Miami Center
Sun 04:46:27 AM 21.3386 -74.3050 137° Southeast 497 572 32,900 50 Level Miami Center
Sun 04:47:27 AM 21.2408 -74.2044 136° Southeast 497 572 33,000  Climbing Miami Center
Sun 04:48:27 AM 21.1347 -74.1064 139° Southeast 497 572 32,900  Descending Miami Center
Sun 04:49:26 AM 21.0308 -74.0153 141° Southeast 497 572 33,000  Climbing Miami Center
Sun 04:50:26 AM 20.9267 -73.9197 139° Southeast 497 572 32,900 -50 Descending Miami Center
Sun 04:51:26 AM 20.8206 -73.8242 140° Southeast 492 566 32,900 50 Level Miami Center
Sun 04:52:27 AM 20.7164 -73.7311 140° Southeast 492 566 33,000 50 Climbing Miami Center
Sun 04:53:26 AM 20.6122 -73.6383 140° Southeast 492 566 33,000  Level Miami Center
Sun 04:54:26 AM 20.5122 -73.5456 139° Southeast 487 560 33,000  Level Miami Center
Sun 04:55:27 AM 20.4081 -73.4528 140° Southeast 487 560 33,000  Level Miami Center
Sun 04:56:29 AM 20.3017 -73.3603 141° Southeast 487 560 33,000  Level Miami Center
Sun 04:57:26 AM 20.1994 -73.2681 140° Southeast 487 560 33,000  Level Miami Center
Sun 04:58:29 AM 20.0850 -73.1847 146° Southeast 492 566 33,000  Level Miami Center
Sun 05:00:00 AM 19.9047 -73.0800 151° Southeast  Level FlightAware Approximate
Sun 05:07:00 AM 19.0639 -72.6151 152° Southeast  Level FlightAware Approximate
Sun 05:08:00 AM 18.9442 -72.5480 152° Southeast  Level FlightAware Approximate
Sun 05:09:00 AM 18.8245 -72.4809 152° Southeast  Level FlightAware Approximate
Sun 05:10:00 AM 18.7048 -72.4139 152° Southeast  Level FlightAware Approximate
Sun 05:11:00 AM 18.5846 -72.3481 153° Southeast  Level FlightAware Approximate
Sun 05:12:00 AM 18.4639 -72.2831 153° Southeast  Level FlightAware Approximate
Sun 05:13:00 AM 18.3468 -72.2115 149° Southeast  Level FlightAware Approximate
Sun 05:14:00 AM 18.2309 -72.1377 149° Southeast  Level FlightAware Approximate
Sun 05:14:26 AM 18.1580 -72.0630 149° Southeast 484 557 33,000  Level FlightAware ADS-B
Sun 05:15:00 AM 18.1150 -72.0639 149° Southeast  Level FlightAware Approximate
Sun 05:15:26 AM 18.0380 -71.9940 151° Southeast 485 558 33,000  Level FlightAware ADS-B
Sun 05:15:50 AM 17.9900 -71.9660 151° Southeast 486 559 33,000  Level FlightAware ADS-B
Sun 05:16:34 AM 17.9050 -71.9170 151° Southeast 485 558 33,000  Level FlightAware ADS-B
Sun 05:17:58 AM 17.7420 -71.8240 151° Southeast 486 559 33,000  Level FlightAware ADS-B
Sun 05:18:30 AM 17.6760 -71.7890 153° Southeast 486 559 33,000  Level FlightAware ADS-B
Sun 05:19:07 AM 17.5930 -71.7700 168° South 490 564 33,000  Level FlightAware ADS-B
Sun 05:19:54 AM 17.4880 -71.7520 171° South 492 566 33,000  Level FlightAware ADS-B
Sun 05:20:26 AM 17.4120 -71.7390 171° South 491 565 33,000  Level FlightAware ADS-B
Sun 05:21:02 AM 17.3350 -71.7260 171° South 491 565 33,000  Level FlightAware ADS-B
Sun 05:21:28 AM 17.2750 -71.7160 171° South 491 565 33,000  Level FlightAware ADS-B
Sun 05:22:00 AM 17.2030 -71.7040 171° South 491 565 33,000  Level FlightAware ADS-B
Sun 05:22:28 AM 17.1400 -71.6930 171° South 492 566 33,000  Level FlightAware ADS-B
Sun 05:23:42 AM 16.9990 -71.6670 170° South 492 566 33,000  Level FlightAware ADS-B
Sun 05:24:06 AM 16.9530 -71.6590 171° South 492 566 33,000  Level FlightAware ADS-B
Sun 05:24:54 AM 16.8620 -71.6420 170° South 492 566 33,000  Level FlightAware ADS-B
Sun 05:25:18 AM 16.7570 -71.6300 174° South 495 570 33,000  Level FlightAware ADS-B
Sun 05:25:58 AM 16.6800 -71.6180 172° South 495 570 33,000  Level FlightAware ADS-B
Sun 05:26:34 AM 16.6100 -71.6060 171° South 495 570 33,000  Level FlightAware ADS-B
Sun 05:26:59 AM 16.5620 -71.5980 171° South 495 570 33,000  Level FlightAware ADS-B
Sun 05:27:48 AM 16.4680 -71.5830 171° South 495 570 33,000  Level FlightAware ADS-B
Sun 05:28:24 AM 16.3990 -71.5710 171° South 495 570 33,000  Level FlightAware ADS-B
Sun 05:29:00 AM 16.3300 -71.5600 171° South 495 570 33,000  Level FlightAware ADS-B
Sun 05:30:00 AM 16.2140 -71.5410 171° South 495 570 33,000  Level FlightAware ADS-B
Sun 05:30:24 AM 16.1680 -71.5330 171° South 495 570 33,000  Level FlightAware ADS-B
Sun 05:31:00 AM 16.0990 -71.5220 171° South 495 570 33,000  Level FlightAware ADS-B
Sun 05:31:36 AM 16.0300 -71.5100 171° South 495 570 33,000  Level FlightAware ADS-B
Sun 05:32:48 AM 15.8910 -71.4870 171° South 495 570 33,000  Level FlightAware ADS-B
Sun 05:33:24 AM 15.8220 -71.4760 171° South 495 570 33,000  Level FlightAware ADS-B
Sun 05:34:12 AM 15.7300 -71.4610 171° South 495 570 33,000  Level FlightAware ADS-B
Sun 05:34:48 AM 15.6610 -71.4490 170° South 495 570 33,000  Level FlightAware ADS-B
Sun 05:35:12 AM 15.6140 -71.4420 172° South 495 570 33,000  Level FlightAware ADS-B
Sun 05:38:00 AM 15.2942 -71.2304 147° Southeast  Level Estimated
Sun 05:39:00 AM 15.1799 -71.1550 148° Southeast  Level Estimated
Sun 05:39:01 AM 15.0150 -71.0460 148° Southeast 480 552 33,000  Level FlightAware ADS-B
Sun 05:39:42 AM 14.9370 -71.0000 150° Southeast 478 550 33,000  Level FlightAware ADS-B
Sun 05:40:17 AM 14.8680 -70.9610 151° Southeast 478 550 33,000  Level FlightAware ADS-B
Sun 05:41:02 AM 14.7800 -70.9100 151° Southeast 480 552 33,000  Level FlightAware ADS-B
Sun 05:41:37 AM 14.7120 -70.8700 150° Southeast 480 552 33,000  Level FlightAware ADS-B
Sun 05:42:12 AM 14.6500 -70.8240 144° Southeast 475 547 33,000  Level FlightAware ADS-B
Sun 05:42:42 AM 14.5990 -70.7760 138° Southeast 481 554 33,000  Level FlightAware ADS-B
Sun 05:43:13 AM 14.5520 -70.7270 135° Southeast 475 547 33,000  Level FlightAware ADS-B
Sun 05:44:07 AM 14.4670 -70.6360 134° Southeast 481 554 33,000  Level FlightAware ADS-B
Sun 05:44:38 AM 14.4230 -70.5840 131° Southeast 476 548 33,000  Level FlightAware ADS-B
Sun 05:45:13 AM 14.3660 -70.5270 136° Southeast 477 549 33,000  Level FlightAware ADS-B
Sun 05:45:53 AM 14.2930 -70.4760 146° Southeast 478 550 33,000  Level FlightAware ADS-B
Sun 05:46:38 AM 14.2090 -70.4140 144° Southeast 483 556 33,000  Level FlightAware ADS-B
Sun 05:47:18 AM 14.1370 -70.3610 144° Southeast 476 548 33,000  Level FlightAware ADS-B
Sun 05:47:54 AM 14.0710 -70.3160 147° Southeast 481 554 33,000  Level FlightAware ADS-B
Sun 05:48:48 AM 13.9690 -70.2460 146° Southeast 482 555 33,000  Level FlightAware ADS-B
Sun 05:49:24 AM 13.9030 -70.2010 147° Southeast 482 555 33,000  Level FlightAware ADS-B
Sun 05:49:54 AM 13.8470 -70.1640 147° Southeast 481 554 33,000  Level FlightAware ADS-B
Sun 05:50:25 AM 13.7900 -70.1240 146° Southeast 481 554 33,000  Level FlightAware ADS-B
Sun 05:50:59 AM 13.7250 -70.0810 147° Southeast 484 557 33,000  Level FlightAware ADS-B
Sun 05:51:35 AM 13.6580 -70.0350 146° Southeast 483 556 33,000  Level FlightAware ADS-B
Sun 05:52:09 AM 13.5950 -69.9920 146° Southeast 482 555 33,000  Level FlightAware ADS-B
Sun 05:52:51 AM 13.5190 -69.9400 146° Southeast 481 554 33,000  Level FlightAware ADS-B
Sun 05:53:34 AM 13.4360 -69.8840 147° Southeast 480 552 33,000  Level FlightAware ADS-B
Sun 05:54:15 AM 13.3610 -69.8330 147° Southeast 479 551 33,000  Level FlightAware ADS-B
Sun 05:54:44 AM 13.3070 -69.7970 147° Southeast 478 550 33,000  Level FlightAware ADS-B
Sun 05:55:44 AM 13.1950 -69.7210 147° Southeast 479 551 33,000  Level FlightAware ADS-B
Sun 05:56:30 AM 13.1100 -69.6640 147° Southeast 479 551 33,000  Level FlightAware ADS-B
Sun 05:57:00 AM 13.0540 -69.6260 147° Southeast 480 552 33,000  Level FlightAware ADS-B
Sun 05:57:56 AM 12.9500 -69.5560 147° Southeast 479 551 33,000  Level FlightAware ADS-B
Sun 05:58:35 AM 12.8770 -69.5060 146° Southeast 478 550 33,000  Level FlightAware ADS-B
Sun 05:59:15 AM 12.8040 -69.4570 147° Southeast 470 541 33,000  Level FlightAware ADS-B
Sun 05:59:45 AM 12.7470 -69.4190 147° Southeast 470 541 33,000  Level FlightAware ADS-B
Sun 06:00:30 AM 12.6640 -69.3630 147° Southeast 469 540 33,000  Level FlightAware ADS-B
Sun 06:01:20 AM 12.5740 -69.3030 147° Southeast 477 549 33,000  Level FlightAware ADS-B
Sun 06:01:50 AM 12.5170 -69.2640 146° Southeast 478 550 33,000 649 Level FlightAware ADS-B
Sun 06:02:34 AM 12.4360 -69.2100 147° Southeast 469 540 33,800 1,367 Climbing FlightAware ADS-B
Sun 06:03:09 AM 12.3710 -69.1660 147° Southeast 464 534 34,800 1,180 Climbing FlightAware ADS-B
Sun 06:03:35 AM 12.3230 -69.1340 147° Southeast 465 535 35,000 174 Climbing FlightAware ADS-B
Sun 06:04:18 AM 12.2500 -69.0850 147° Southeast 469 540 35,000  Level FlightAware ADS-B
Sun 06:05:05 AM 12.1620 -69.0260 147° Southeast 481 554 35,000  Level FlightAware ADS-B
Sun 06:05:43 AM 12.0920 -68.9790 147° Southeast 484 557 35,000  Level FlightAware ADS-B
Sun 06:06:21 AM 12.0120 -68.9260 147° Southeast 484 557 35,000  Level FlightAware ADS-B
Sun 06:06:52 AM 11.9510 -68.8850 147° Southeast 484 557 35,000  Level FlightAware ADS-B
Sun 06:08:04 AM 11.8160 -68.7950 147° Southeast 482 555 35,000  Level FlightAware ADS-B
Sun 06:08:40 AM 11.7470 -68.7500 147° Southeast 479 551 35,000  Level FlightAware ADS-B
Sun 06:09:50 AM 11.6130 -68.6720 150° Southeast 480 552 35,000  Level FlightAware ADS-B
Sun 06:10:24 AM 11.5460 -68.6340 151° Southeast 479 551 35,000  Level FlightAware ADS-B
Sun 06:10:50 AM 11.4960 -68.6050 150° Southeast 478 550 35,000  Level FlightAware ADS-B
Sun 06:11:34 AM 11.4110 -68.5560 151° Southeast 478 550 35,000  Level FlightAware ADS-B
Sun 06:12:10 AM 11.3420 -68.5170 151° Southeast 477 549 35,000  Level FlightAware ADS-B
Sun 06:12:45 AM 11.2730 -68.4780 151° Southeast 476 548 35,000  Level FlightAware ADS-B
Sun 06:13:31 AM 11.1880 -68.4230 148° Southeast 478 550 35,000  Level FlightAware ADS-B
Sun 06:14:00 AM 11.1500 -68.3700 126° Southeast 481 554 35,000  Level FlightAware ADS-B
Sun 06:14:41 AM 11.1160 -68.2830 112° Southeast 487 560 35,000  Level FlightAware ADS-B
Sun 06:15:11 AM 11.0920 -68.2200 111° Southeast 485 558 35,000  Level FlightAware ADS-B
Sun 06:16:01 AM 11.0510 -68.1110 111° Southeast 489 563 35,000  Level FlightAware ADS-B
Sun 06:16:36 AM 11.0220 -68.0360 111° Southeast 490 564 35,000  Level FlightAware ADS-B
Sun 06:17:21 AM 10.9850 -67.9400 111° Southeast 489 563 35,000  Level FlightAware ADS-B
Sun 06:18:01 AM 10.9510 -67.8540 112° Southeast 488 562 35,000  Level FlightAware ADS-B
Sun 06:18:32 AM 10.9250 -67.7890 112° Southeast 486 559 35,000  Level FlightAware ADS-B
Sun 06:19:12 AM 10.8910 -67.7030 112° Southeast 485 558 35,000  Level FlightAware ADS-B
Sun 06:19:41 AM 10.8670 -67.6420 112° Southeast 484 557 35,000  Level FlightAware ADS-B
Sun 06:20:31 AM 10.8250 -67.5350 112° Southeast 483 556 35,000  Level FlightAware ADS-B
Sun 06:21:12 AM 10.7920 -67.4510 112° Southeast 482 555 35,000  Level FlightAware ADS-B
Sun 06:21:51 AM 10.7590 -67.3670 112° Southeast 482 555 35,000  Level FlightAware ADS-B
Sun 06:22:27 AM 10.7290 -67.2920 112° Southeast 483 556 35,000  Level FlightAware ADS-B
Sun 06:23:06 AM 10.6960 -67.2090 112° Southeast 484 557 35,000  Level FlightAware ADS-B
Sun 06:23:37 AM 10.6710 -67.1440 111° Southeast 484 557 35,000  Level FlightAware ADS-B
Sun 06:24:07 AM 10.6460 -67.0810 112° Southeast 484 557 35,000  Level FlightAware ADS-B
Sun 06:24:52 AM 10.5970 -66.9920 119° Southeast 478 550 35,000  Level FlightAware ADS-B
Sun 06:25:37 AM 10.5150 -66.9320 144° Southeast 474 545 35,000  Level FlightAware ADS-B
Sun 06:26:18 AM 10.4380 -66.8860 150° Southeast 481 554 35,000  Level FlightAware ADS-B
Sun 06:26:52 AM 10.3710 -66.8460 150° Southeast 483 556 35,000  Level FlightAware ADS-B
Sun 06:27:23 AM 10.3150 -66.8090 147° Southeast 475 547 35,000  Level FlightAware ADS-B
Sun 06:27:52 AM 10.2720 -66.7580 131° Southeast 483 556 35,000  Level FlightAware ADS-B
Sun 06:28:53 AM 10.2100 -66.6340 117° Southeast 483 556 35,000  Level FlightAware ADS-B
Sun 06:29:38 AM 10.1670 -66.5460 116° Southeast 484 557 35,000  Level FlightAware ADS-B
Sun 06:30:15 AM 10.1300 -66.4710 117° Southeast 482 555 35,000  Level FlightAware ADS-B
Sun 06:30:54 AM 10.0880 -66.3870 117° Southeast 483 556 35,000  Level FlightAware ADS-B
Sun 06:31:38 AM 10.0460 -66.3030 117° Southeast 483 556 35,000  Level FlightAware ADS-B
Sun 06:32:38 AM 9.9820 -66.1760 117° Southeast 487 560 35,000  Level FlightAware ADS-B
Sun 06:33:14 AM 9.9490 -66.1100 117° Southeast 483 556 35,000  Level FlightAware ADS-B
Sun 06:33:53 AM 9.9160 -66.0420 116° Southeast 483 556 35,000  Level FlightAware ADS-B
Sun 06:34:29 AM 9.8860 -65.9800 116° Southeast 483 556 35,000  Level FlightAware ADS-B
Sun 06:35:18 AM 9.8450 -65.8950 116° Southeast 483 556 35,000  Level FlightAware ADS-B
Sun 06:36:06 AM 9.8050 -65.8120 116° Southeast 483 556 35,000  Level FlightAware ADS-B
Sun 06:37:06 AM 9.7550 -65.7080 116° Southeast 483 556 35,000  Level FlightAware ADS-B
Sun 06:37:42 AM 9.7250 -65.6450 116° Southeast 483 556 35,000  Level FlightAware ADS-B
Sun 06:38:18 AM 9.6950 -65.5830 116° Southeast 483 556 35,000  Level FlightAware ADS-B
Sun 06:39:06 AM 9.6550 -65.5000 116° Southeast 483 556 35,000  Level FlightAware ADS-B
Sun 06:39:42 AM 9.6250 -65.4380 116° Southeast 483 556 35,000  Level FlightAware ADS-B
Sun 06:40:18 AM 9.5950 -65.3750 116° Southeast 483 556 35,000  Level FlightAware ADS-B
Sun 06:40:54 AM 9.5650 -65.3130 116° Southeast 483 556 35,000  Level FlightAware ADS-B
Sun 06:41:45 AM 9.5230 -65.2250 116° Southeast 483 556 35,000  Level FlightAware ADS-B
Sun 06:42:22 AM 9.4920 -65.1610 116° Southeast 483 556 35,000  Level FlightAware ADS-B
Sun 06:43:10 AM 9.4520 -65.0780 116° Southeast 483 556 35,000  Level FlightAware ADS-B
Sun 06:46:00 AM 9.1121 -64.9209 155° Southeast  Level FlightAware Approximate
Sun 06:47:00 AM 8.9921 -64.8655 155° Southeast  Level FlightAware Approximate
Sun 06:48:00 AM 8.8722 -64.8102 156° South  Level FlightAware Approximate
Sun 06:49:00 AM 8.7565 -64.7461 145° Southeast  Level Estimated
Sun 06:50:00 AM 8.6482 -64.6700 145° Southeast  Level FlightAware Approximate
Sun 06:51:00 AM 8.5400 -64.5939 145° Southeast  Level FlightAware Approximate
Sun 06:52:00 AM 8.4317 -64.5179 145° Southeast  Level FlightAware Approximate
Sun 06:53:00 AM 8.3234 -64.4419 145° Southeast  Level FlightAware Approximate
Sun 06:54:00 AM 8.2150 -64.3659 145° Southeast  Level FlightAware Approximate
Sun 06:55:00 AM 8.1067 -64.2900 145° Southeast  Level FlightAware Approximate
Sun 06:56:00 AM 7.9984 -64.2141 145° Southeast  Level FlightAware Approximate
Sun 06:57:00 AM 7.8900 -64.1383 145° Southeast  Level FlightAware Approximate
Sun 06:58:00 AM 7.7816 -64.0625 145° Southeast  Level FlightAware Approximate
Sun 06:59:00 AM 7.6732 -63.9867 145° Southeast  Level FlightAware Approximate
Sun 07:00:00 AM 7.5648 -63.9110 145° Southeast  Level FlightAware Approximate
Sun 07:01:00 AM 7.4564 -63.8353 145° Southeast  Level FlightAware Approximate
Sun 07:02:00 AM 7.3480 -63.7597 145° Southeast  Level FlightAware Approximate
Sun 07:03:00 AM 7.2395 -63.6841 145° Southeast  Level FlightAware Approximate
Sun 07:04:00 AM 7.1311 -63.6085 145° Southeast  Level FlightAware Approximate
Sun 07:05:00 AM 7.0226 -63.5330 145° Southeast  Level FlightAware Approximate
Sun 07:06:00 AM 6.9141 -63.4575 145° Southeast  Level FlightAware Approximate
Sun 07:07:00 AM 6.8056 -63.3820 145° Southeast  Level FlightAware Approximate
Sun 07:08:00 AM 6.6971 -63.3066 145° Southeast  Level FlightAware Approximate
Sun 07:09:00 AM 6.5886 -63.2312 145° Southeast  Level FlightAware Approximate
Sun 07:10:00 AM 6.4801 -63.1559 145° Southeast  Level FlightAware Approximate
Sun 07:11:00 AM 6.3715 -63.0805 145° Southeast  Level FlightAware Approximate
Sun 07:12:00 AM 6.2630 -63.0052 145° Southeast  Level FlightAware Approximate
Sun 07:13:00 AM 6.1466 -62.9430 146° Southeast  Level Estimated
Sun 07:14:00 AM 6.0378 -62.8680 146° Southeast  Level FlightAware Approximate
Sun 07:15:00 AM 5.9291 -62.7930 146° Southeast  Level FlightAware Approximate
Sun 07:16:00 AM 5.8203 -62.7181 146° Southeast  Level FlightAware Approximate
Sun 07:17:00 AM 5.7115 -62.6432 146° Southeast  Level FlightAware Approximate
Sun 07:18:00 AM 5.6027 -62.5683 146° Southeast  Level FlightAware Approximate
Sun 07:19:00 AM 5.4940 -62.4935 146° Southeast  Level FlightAware Approximate
Sun 07:20:00 AM 5.3852 -62.4187 146° Southeast  Level FlightAware Approximate
Sun 07:21:00 AM 5.2764 -62.3439 146° Southeast  Level FlightAware Approximate
Sun 07:22:00 AM 5.1675 -62.2691 146° Southeast  Level FlightAware Approximate
Sun 07:23:00 AM 5.0587 -62.1944 146° Southeast  Level FlightAware Approximate
Sun 07:24:00 AM 4.9499 -62.1197 146° Southeast  Level FlightAware Approximate
Sun 07:25:00 AM 4.8410 -62.0450 146° Southeast  Level FlightAware Approximate
Sun 07:26:00 AM 4.7322 -61.9703 146° Southeast  Level FlightAware Approximate
Sun 07:27:00 AM 4.6233 -61.8957 146° Southeast  Level FlightAware Approximate
Sun 07:28:00 AM 4.5145 -61.8211 146° Southeast  Level FlightAware Approximate
Sun 07:29:00 AM 4.4056 -61.7465 146° Southeast  Level FlightAware Approximate
Sun 07:30:00 AM 4.2967 -61.6719 146° Southeast  Level FlightAware Approximate
Sun 07:31:00 AM 4.1878 -61.5974 146° Southeast  Level FlightAware Approximate
Sun 07:32:00 AM 4.0789 -61.5228 146° Southeast  Level FlightAware Approximate
Sun 07:33:00 AM 3.9700 -61.4483 146° Southeast  Level FlightAware Approximate
Sun 07:34:00 AM 3.8611 -61.3738 146° Southeast  Level FlightAware Approximate
Sun 07:35:00 AM 3.7522 -61.2994 146° Southeast  Level FlightAware Approximate
Sun 07:36:00 AM 3.6432 -61.2249 146° Southeast  Level FlightAware Approximate
Sun 07:37:00 AM 3.5343 -61.1505 146° Southeast  Level FlightAware Approximate
Sun 07:38:00 AM 3.4254 -61.0761 146° Southeast  Level FlightAware Approximate
Sun 07:39:00 AM 3.3165 -61.0017 146° Southeast  Level FlightAware Approximate
Sun 07:40:00 AM 3.2075 -60.9273 146° Southeast  Level FlightAware Approximate
Sun 07:41:00 AM 3.0986 -60.8529 146° Southeast  Level FlightAware Approximate
Sun 07:42:00 AM 2.9896 -60.7786 146° Southeast  Level FlightAware Approximate
Sun 07:43:00 AM 2.8806 -60.7042 146° Southeast  Level FlightAware Approximate
Sun 07:44:00 AM 2.7632 -60.6442 153° Southeast  Level Estimated
Sun 07:45:00 AM 2.6462 -60.5833 153° Southeast  Level FlightAware Approximate
Sun 07:46:00 AM 2.5292 -60.5225 153° Southeast  Level FlightAware Approximate
Sun 07:47:00 AM 2.4122 -60.4616 153° Southeast  Level FlightAware Approximate
Sun 07:48:00 AM 2.2952 -60.4008 153° Southeast  Level FlightAware Approximate
Sun 07:49:00 AM 2.1782 -60.3400 153° Southeast  Level FlightAware Approximate
Sun 07:50:00 AM 2.0608 -60.2800 153° Southeast  Level Estimated
Sun 07:51:00 AM 1.9433 -60.2200 153° Southeast  Level FlightAware Approximate
Sun 07:52:00 AM 1.8259 -60.1600 153° Southeast  Level FlightAware Approximate
Sun 07:53:00 AM 1.7085 -60.1000 153° Southeast  Level FlightAware Approximate
Sun 07:54:00 AM 1.5911 -60.0401 153° Southeast  Level FlightAware Approximate
Sun 07:55:00 AM 1.4736 -59.9801 153° Southeast  Level FlightAware Approximate
Sun 07:56:00 AM 1.3562 -59.9201 153° Southeast  Level FlightAware Approximate
Sun 07:57:00 AM 1.2388 -59.8601 153° Southeast  Level FlightAware Approximate
Sun 07:58:00 AM 1.1213 -59.8002 153° Southeast  Level FlightAware Approximate
Sun 07:59:00 AM 1.0039 -59.7402 153° Southeast  Level FlightAware Approximate
Sun 08:00:00 AM 0.8865 -59.6803 153° Southeast  Level FlightAware Approximate
Sun 08:01:00 AM 0.7690 -59.6203 153° Southeast  Level FlightAware Approximate
Sun 08:02:00 AM 0.6516 -59.5604 153° Southeast  Level FlightAware Approximate
Sun 08:03:00 AM 0.5342 -59.5004 153° Southeast  Level FlightAware Approximate
Sun 08:04:00 AM 0.4167 -59.4405 153° Southeast  Level FlightAware Approximate
Sun 08:05:00 AM 0.2993 -59.3805 153° Southeast  Level FlightAware Approximate
Sun 08:06:00 AM 0.1818 -59.3206 153° Southeast  Level FlightAware Approximate
Sun 08:07:00 AM 0.0644 -59.2607 153° Southeast  Level FlightAware Approximate
Sun 08:08:00 AM -0.0530 -59.2007 153° Southeast  Level FlightAware Approximate
Sun 08:09:00 AM -0.1705 -59.1408 153° Southeast  Level FlightAware Approximate
Sun 08:10:00 AM -0.2879 -59.0808 153° Southeast  Level FlightAware Approximate
Sun 08:11:00 AM -0.4054 -59.0209 153° Southeast  Level FlightAware Approximate
Sun 08:12:00 AM -0.5228 -58.9610 153° Southeast  Level FlightAware Approximate
Sun 08:13:00 AM -0.6402 -58.9010 153° Southeast  Level FlightAware Approximate
Sun 08:14:00 AM -0.7577 -58.8411 153° Southeast  Level FlightAware Approximate
Sun 08:15:00 AM -0.8751 -58.7811 153° Southeast  Level FlightAware Approximate
Sun 08:16:00 AM -0.9926 -58.7212 153° Southeast  Level FlightAware Approximate
Sun 08:17:00 AM -1.1100 -58.6612 153° Southeast  Level FlightAware Approximate
Sun 08:18:00 AM -1.2274 -58.6012 153° Southeast  Level FlightAware Approximate
Sun 08:19:00 AM -1.3448 -58.5413 153° Southeast  Level FlightAware Approximate
Sun 08:20:00 AM -1.4623 -58.4813 153° Southeast  Level FlightAware Approximate
Sun 08:21:00 AM -1.5797 -58.4213 153° Southeast  Level FlightAware Approximate
Sun 08:22:00 AM -1.6971 -58.3613 153° Southeast  Level FlightAware Approximate
Sun 08:23:00 AM -1.8146 -58.3013 153° Southeast  Level FlightAware Approximate
Sun 08:24:00 AM -1.9320 -58.2413 153° Southeast  Level FlightAware Approximate
Sun 08:25:00 AM -2.0494 -58.1813 153° Southeast  Level FlightAware Approximate
Sun 08:26:00 AM -2.1668 -58.1213 153° Southeast  Level FlightAware Approximate
Sun 08:27:00 AM -2.2842 -58.0613 153° Southeast  Level FlightAware Approximate
Sun 08:28:00 AM -2.4016 -58.0013 153° Southeast  Level FlightAware Approximate
Sun 08:29:00 AM -2.5190 -57.9412 153° Southeast  Level FlightAware Approximate
Sun 08:30:00 AM -2.6365 -57.8811 153° Southeast  Level FlightAware Approximate
Sun 08:31:00 AM -2.7539 -57.8211 153° Southeast  Level FlightAware Approximate
Sun 08:32:00 AM -2.8713 -57.7610 153° Southeast  Level FlightAware Approximate
Sun 08:33:00 AM -2.9887 -57.7009 153° Southeast  Level FlightAware Approximate
Sun 08:34:00 AM -3.1061 -57.6408 153° Southeast  Level FlightAware Approximate
Sun 08:35:00 AM -3.2234 -57.5807 153° Southeast  Level FlightAware Approximate
Sun 08:36:00 AM -3.3408 -57.5205 153° Southeast  Level FlightAware Approximate
Sun 08:37:00 AM -3.4582 -57.4604 153° Southeast  Level FlightAware Approximate
Sun 08:38:00 AM -3.5756 -57.4002 153° Southeast  Level FlightAware Approximate
Sun 08:39:00 AM -3.6930 -57.3400 153° Southeast  Level FlightAware Approximate
Sun 08:40:00 AM -3.8103 -57.2799 153° Southeast  Level FlightAware Approximate
Sun 08:41:00 AM -3.9277 -57.2197 153° Southeast  Level FlightAware Approximate
Sun 08:42:00 AM -4.0451 -57.1594 153° Southeast  Level FlightAware Approximate
Sun 08:43:00 AM -4.1624 -57.0992 153° Southeast  Level FlightAware Approximate
Sun 08:44:00 AM -4.2798 -57.0389 153° Southeast  Level FlightAware Approximate
Sun 08:45:00 AM -4.3972 -56.9786 153° Southeast  Level FlightAware Approximate
Sun 08:46:00 AM -4.5145 -56.9183 153° Southeast  Level FlightAware Approximate
Sun 08:47:00 AM -4.6318 -56.8580 153° Southeast  Level FlightAware Approximate
Sun 08:48:00 AM -4.7492 -56.7977 153° Southeast  Level FlightAware Approximate
Sun 08:49:00 AM -4.8665 -56.7373 153° Southeast  Level FlightAware Approximate
Sun 08:50:00 AM -4.9838 -56.6769 153° Southeast  Level FlightAware Approximate
Sun 08:51:00 AM -5.1012 -56.6165 153° Southeast  Level FlightAware Approximate
Sun 08:52:00 AM -5.2185 -56.5561 153° Southeast  Level FlightAware Approximate
Sun 08:53:00 AM -5.3358 -56.4957 153° Southeast  Level FlightAware Approximate
Sun 08:54:00 AM -5.4531 -56.4352 153° Southeast  Level FlightAware Approximate
Sun 08:55:00 AM -5.5704 -56.3747 153° Southeast  Level FlightAware Approximate
Sun 08:56:00 AM -5.6877 -56.3142 153° Southeast  Level FlightAware Approximate
Sun 08:57:00 AM -5.8049 -56.2536 153° Southeast  Level FlightAware Approximate
Sun 08:58:00 AM -5.9222 -56.1931 153° Southeast  Level FlightAware Approximate
Sun 08:59:00 AM -6.0395 -56.1325 153° Southeast  Level FlightAware Approximate
Sun 09:00:00 AM -6.1568 -56.0718 153° Southeast  Level FlightAware Approximate
Sun 09:01:00 AM -6.2740 -56.0112 153° Southeast  Level FlightAware Approximate
Sun 09:02:00 AM -6.3913 -55.9505 153° Southeast  Level FlightAware Approximate
Sun 09:03:00 AM -6.5085 -55.8898 153° Southeast  Level FlightAware Approximate
Sun 09:04:00 AM -6.6257 -55.8291 153° Southeast  Level FlightAware Approximate
Sun 09:05:00 AM -6.7430 -55.7683 153° Southeast  Level FlightAware Approximate
Sun 09:06:00 AM -6.8602 -55.7076 153° Southeast  Level FlightAware Approximate
Sun 09:07:00 AM -6.9774 -55.6467 153° Southeast  Level FlightAware Approximate
Sun 09:08:00 AM -7.0946 -55.5859 153° Southeast  Level FlightAware Approximate
Sun 09:09:00 AM -7.2118 -55.5250 153° Southeast  Level FlightAware Approximate
Sun 09:10:00 AM -7.3290 -55.4641 153° Southeast  Level FlightAware Approximate
Sun 09:11:00 AM -7.4462 -55.4031 153° Southeast  Level FlightAware Approximate
Sun 09:12:00 AM -7.5634 -55.3422 153° Southeast  Level FlightAware Approximate
Sun 09:13:00 AM -7.6805 -55.2812 153° Southeast  Level FlightAware Approximate
Sun 09:14:00 AM -7.7977 -55.2201 153° Southeast  Level FlightAware Approximate
Sun 09:15:00 AM -7.9148 -55.1590 153° Southeast  Level FlightAware Approximate
Sun 09:16:00 AM -8.0320 -55.0979 153° Southeast  Level FlightAware Approximate
Sun 09:17:00 AM -8.1491 -55.0368 153° Southeast  Level FlightAware Approximate
Sun 09:18:00 AM -8.2662 -54.9756 153° Southeast  Level FlightAware Approximate
Sun 09:19:00 AM -8.3833 -54.9144 153° Southeast  Level FlightAware Approximate
Sun 09:20:00 AM -8.5004 -54.8531 153° Southeast  Level FlightAware Approximate
Sun 09:21:00 AM -8.6175 -54.7918 153° Southeast  Level FlightAware Approximate
Sun 09:22:00 AM -8.7346 -54.7305 153° Southeast  Level FlightAware Approximate
Sun 09:23:00 AM -8.8517 -54.6691 153° Southeast  Level FlightAware Approximate
Sun 09:24:00 AM -8.9687 -54.6077 153° Southeast  Level FlightAware Approximate
Sun 09:25:00 AM -9.0858 -54.5463 153° Southeast  Level FlightAware Approximate
Sun 09:26:00 AM -9.2028 -54.4848 153° Southeast  Level FlightAware Approximate
Sun 09:27:00 AM -9.3198 -54.4232 153° Southeast  Level FlightAware Approximate
Sun 09:28:00 AM -9.4369 -54.3617 153° Southeast  Level FlightAware Approximate
Sun 09:29:00 AM -9.5539 -54.3001 153° Southeast  Level FlightAware Approximate
Sun 09:30:00 AM -9.6709 -54.2384 153° Southeast  Level FlightAware Approximate
Sun 09:31:00 AM -9.7879 -54.1767 153° Southeast  Level FlightAware Approximate
Sun 09:32:00 AM -9.9048 -54.1150 153° Southeast  Level FlightAware Approximate
Sun 09:33:00 AM -10.0218 -54.0532 153° Southeast  Level FlightAware Approximate
Sun 09:34:00 AM -10.1388 -53.9913 153° Southeast  Level FlightAware Approximate
Sun 09:35:00 AM -10.2557 -53.9295 152° Southeast  Level FlightAware Approximate
Sun 09:36:00 AM -10.3726 -53.8675 152° Southeast  Level FlightAware Approximate
Sun 09:37:00 AM -10.4895 -53.8056 152° Southeast  Level FlightAware Approximate
Sun 09:38:00 AM -10.6065 -53.7436 152° Southeast  Level FlightAware Approximate
Sun 09:39:00 AM -10.7233 -53.6815 152° Southeast  Level FlightAware Approximate
Sun 09:40:00 AM -10.8402 -53.6194 152° Southeast  Level FlightAware Approximate
Sun 09:41:00 AM -10.9571 -53.5572 152° Southeast  Level FlightAware Approximate
Sun 09:42:00 AM -11.0740 -53.4950 152° Southeast  Level FlightAware Approximate
Sun 09:43:00 AM -11.1908 -53.4328 152° Southeast  Level FlightAware Approximate
Sun 09:44:00 AM -11.3076 -53.3705 152° Southeast  Level FlightAware Approximate
Sun 09:45:00 AM -11.4244 -53.3081 152° Southeast  Level FlightAware Approximate
Sun 09:46:00 AM -11.5413 -53.2457 152° Southeast  Level FlightAware Approximate
Sun 09:47:00 AM -11.6580 -53.1832 152° Southeast  Level FlightAware Approximate
Sun 09:48:00 AM -11.7748 -53.1207 152° Southeast  Level FlightAware Approximate
Sun 09:49:00 AM -11.8916 -53.0582 152° Southeast  Level FlightAware Approximate
Sun 09:50:00 AM -12.0084 -52.9955 152° Southeast  Level FlightAware Approximate
Sun 09:51:00 AM -12.1251 -52.9328 152° Southeast  Level FlightAware Approximate
Sun 09:52:00 AM -12.2418 -52.8701 152° Southeast  Level FlightAware Approximate
Sun 09:53:00 AM -12.3585 -52.8073 152° Southeast  Level FlightAware Approximate
Sun 09:54:00 AM -12.4752 -52.7445 152° Southeast  Level FlightAware Approximate
Sun 09:55:00 AM -12.5919 -52.6816 152° Southeast  Level FlightAware Approximate
Sun 09:56:00 AM -12.7086 -52.6186 152° Southeast  Level FlightAware Approximate
Sun 09:57:00 AM -12.8252 -52.5556 152° Southeast  Level FlightAware Approximate
Sun 09:58:00 AM -12.9418 -52.4925 152° Southeast  Level FlightAware Approximate
Sun 09:59:00 AM -13.0585 -52.4294 152° Southeast  Level FlightAware Approximate
Sun 10:00:00 AM -13.1751 -52.3662 152° Southeast  Level FlightAware Approximate
Sun 10:01:00 AM -13.2917 -52.3030 152° Southeast  Level FlightAware Approximate
Sun 10:02:00 AM -13.4082 -52.2397 152° Southeast  Level FlightAware Approximate
Sun 10:03:00 AM -13.5248 -52.1763 152° Southeast  Level FlightAware Approximate
Sun 10:04:00 AM -13.6413 -52.1129 152° Southeast  Level FlightAware Approximate
Sun 10:05:00 AM -13.7579 -52.0494 152° Southeast  Level FlightAware Approximate
Sun 10:06:00 AM -13.8744 -51.9858 152° Southeast  Level FlightAware Approximate
Sun 10:07:00 AM -13.9909 -51.9222 152° Southeast  Level FlightAware Approximate
Sun 10:08:00 AM -14.1073 -51.8585 152° Southeast  Level FlightAware Approximate
Sun 10:09:00 AM -14.2238 -51.7947 152° Southeast  Level FlightAware Approximate
Sun 10:10:00 AM -14.3402 -51.7309 152° Southeast  Level FlightAware Approximate
Sun 10:11:00 AM -14.4567 -51.6670 152° Southeast  Level FlightAware Approximate
Sun 10:12:00 AM -14.5731 -51.6031 152° Southeast  Level FlightAware Approximate
Sun 10:13:00 AM -14.6895 -51.5391 152° Southeast  Level FlightAware Approximate
Sun 10:14:00 AM -14.8058 -51.4750 152° Southeast  Level FlightAware Approximate
Sun 10:15:00 AM -14.9222 -51.4108 152° Southeast  Level FlightAware Approximate
Sun 10:16:00 AM -15.0385 -51.3466 152° Southeast  Level FlightAware Approximate
Sun 10:17:00 AM -15.1549 -51.2823 152° Southeast  Level FlightAware Approximate
Sun 10:18:00 AM -15.2712 -51.2179 152° Southeast  Level FlightAware Approximate
Sun 10:19:00 AM -15.3874 -51.1535 152° Southeast  Level FlightAware Approximate
Sun 10:20:00 AM -15.5037 -51.0890 152° Southeast  Level FlightAware Approximate
Sun 10:21:00 AM -15.6200 -51.0244 152° Southeast  Level FlightAware Approximate
Sun 10:22:00 AM -15.7362 -50.9597 152° Southeast  Level FlightAware Approximate
Sun 10:23:00 AM -15.8524 -50.8950 152° Southeast  Level FlightAware Approximate
Sun 10:24:00 AM -15.9686 -50.8302 152° Southeast  Level FlightAware Approximate
Sun 10:25:00 AM -16.0847 -50.7653 152° Southeast  Level FlightAware Approximate
Sun 10:26:00 AM -16.2009 -50.7003 152° Southeast  Level FlightAware Approximate
Sun 10:27:00 AM -16.3170 -50.6353 152° Southeast  Level FlightAware Approximate
Sun 10:28:00 AM -16.4331 -50.5702 152° Southeast  Level FlightAware Approximate
Sun 10:29:00 AM -16.5492 -50.5050 152° Southeast  Level FlightAware Approximate
Sun 10:30:00 AM -16.6653 -50.4397 152° Southeast  Level FlightAware Approximate
Sun 10:31:00 AM -16.7813 -50.3744 152° Southeast  Level FlightAware Approximate
Sun 10:32:00 AM -16.8974 -50.3089 152° Southeast  Level FlightAware Approximate
Sun 10:33:00 AM -17.0134 -50.2434 152° Southeast  Level FlightAware Approximate
Sun 10:34:00 AM -17.1294 -50.1778 152° Southeast  Level FlightAware Approximate
Sun 10:35:00 AM -17.2453 -50.1122 152° Southeast  Level FlightAware Approximate
Sun 10:36:00 AM -17.3613 -50.0464 152° Southeast  Level FlightAware Approximate
Sun 10:37:00 AM -17.4772 -49.9806 152° Southeast  Level FlightAware Approximate
Sun 10:38:00 AM -17.5931 -49.9147 152° Southeast  Level FlightAware Approximate
Sun 10:39:00 AM -17.7090 -49.8487 152° Southeast  Level FlightAware Approximate
Sun 10:40:00 AM -17.8249 -49.7826 151° Southeast  Level FlightAware Approximate
Sun 10:41:00 AM -17.9407 -49.7164 151° Southeast  Level FlightAware Approximate
Sun 10:41:06 AM -18.1340 -49.9600 151° Southeast 472 543 35,000  Level FlightAware ADS-B
Sun 10:41:53 AM -18.2260 -49.9110 153° Southeast 474 545 35,000  Level FlightAware ADS-B
Sun 10:42:00 AM -18.0565 -49.6501 151° Southeast  Level FlightAware Approximate
Sun 10:42:32 AM -18.3020 -49.8700 153° Southeast 473 544 35,000  Level FlightAware ADS-B
Sun 10:43:05 AM -18.3660 -49.8360 153° Southeast 473 544 35,000  Level FlightAware ADS-B
Sun 10:43:45 AM -18.4450 -49.7940 153° Southeast 474 545 35,000  Level FlightAware ADS-B
Sun 10:44:18 AM -18.5100 -49.7600 154° Southeast 474 545 35,000  Level FlightAware ADS-B
Sun 10:45:01 AM -18.5950 -49.7150 153° Southeast 474 545 35,000  Level FlightAware ADS-B
Sun 10:45:40 AM -18.6700 -49.6750 153° Southeast 474 545 35,000  Level FlightAware ADS-B
Sun 10:46:17 AM -18.7440 -49.6360 153° Southeast 474 545 35,000  Level FlightAware ADS-B
Sun 10:46:57 AM -18.8230 -49.5930 153° Southeast 476 548 35,000  Level FlightAware ADS-B
Sun 10:47:39 AM -18.9030 -49.5500 153° Southeast 476 548 35,000  Level FlightAware ADS-B
Sun 10:48:10 AM -18.9660 -49.5150 152° Southeast 477 549 35,000  Level FlightAware ADS-B
Sun 10:48:54 AM -19.0520 -49.4680 153° Southeast 477 549 35,000  Level FlightAware ADS-B
Sun 10:49:46 AM -19.1520 -49.4130 153° Southeast 478 550 35,000  Level FlightAware ADS-B
Sun 10:50:18 AM -19.2110 -49.3800 152° Southeast 478 550 35,000  Level FlightAware ADS-B
Sun 10:51:04 AM -19.3080 -49.3270 153° Southeast 479 551 35,000  Level FlightAware ADS-B
Sun 10:51:45 AM -19.3880 -49.2830 153° Southeast 481 554 35,000  Level FlightAware ADS-B
Sun 10:52:22 AM -19.4620 -49.2420 152° Southeast 481 554 35,000  Level FlightAware ADS-B
Sun 10:53:06 AM -19.5490 -49.1930 152° Southeast 480 552 35,000  Level FlightAware ADS-B
Sun 10:53:50 AM -19.6360 -49.1450 153° Southeast 480 552 35,000  Level FlightAware ADS-B
Sun 10:54:30 AM -19.7150 -49.1010 152° Southeast 480 552 35,000  Level FlightAware ADS-B
Sun 10:55:18 AM -19.8050 -49.0510 152° Southeast 477 549 35,000  Level FlightAware ADS-B
Sun 10:55:56 AM -19.8840 -49.0070 152° Southeast 476 548 35,000  Level FlightAware ADS-B
Sun 10:56:38 AM -19.9650 -48.9620 152° Southeast 476 548 35,000  Level FlightAware ADS-B
Sun 10:57:24 AM -20.0560 -48.9120 153° Southeast 475 547 35,000  Level FlightAware ADS-B
Sun 10:58:09 AM -20.1420 -48.8640 152° Southeast 475 547 35,000  Level FlightAware ADS-B
Sun 10:59:04 AM -20.2510 -48.8030 152° Southeast 475 547 35,000  Level FlightAware ADS-B
Sun 10:59:48 AM -20.3370 -48.7550 152° Southeast 476 548 35,000  Level FlightAware ADS-B
Sun 11:00:30 AM -20.4180 -48.7120 154° Southeast 476 548 35,000  Level FlightAware ADS-B
Sun 11:01:03 AM -20.4840 -48.6770 154° Southeast 475 547 35,000  Level FlightAware ADS-B
Sun 11:01:47 AM -20.5710 -48.6300 153° Southeast 477 549 35,000  Level FlightAware ADS-B
Sun 11:02:32 AM -20.6620 -48.5820 154° Southeast 478 550 35,000  Level FlightAware ADS-B
Sun 11:03:12 AM -20.7360 -48.5430 154° Southeast 478 550 35,000  Level FlightAware ADS-B
Sun 11:03:54 AM -20.8200 -48.4970 153° Southeast 478 550 35,000  Level FlightAware ADS-B
Sun 11:04:42 AM -20.9140 -48.4470 154° Southeast 477 549 35,000  Level FlightAware ADS-B
Sun 11:05:29 AM -21.0110 -48.3950 153° Southeast 477 549 35,000  Level FlightAware ADS-B
Sun 11:06:07 AM -21.0870 -48.3520 152° Southeast 479 551 35,000  Level FlightAware ADS-B
Sun 11:06:47 AM -21.1540 -48.2900 139° Southeast 491 565 35,000  Level FlightAware ADS-B
Sun 11:07:25 AM -21.2140 -48.2230 134° Southeast 490 564 35,000  Level FlightAware ADS-B
Sun 11:07:57 AM -21.2640 -48.1660 133° Southeast 490 564 35,000  Level FlightAware ADS-B
Sun 11:08:25 AM -21.3070 -48.1170 133° Southeast 489 563 35,000  Level FlightAware ADS-B
Sun 11:09:09 AM -21.3750 -48.0400 133° Southeast 490 564 35,000  Level FlightAware ADS-B
Sun 11:09:45 AM -21.4340 -47.9760 135° Southeast 488 562 35,000  Level FlightAware ADS-B
Sun 11:10:26 AM -21.5050 -47.9190 143° Southeast 485 558 35,000  Level FlightAware ADS-B
Sun 11:11:01 AM -21.5700 -47.8650 142° Southeast 485 558 35,000  Level FlightAware ADS-B
Sun 11:11:50 AM -21.6550 -47.7930 142° Southeast 487 560 35,000  Level FlightAware ADS-B
Sun 11:12:39 AM -21.7430 -47.7170 141° Southeast 485 558 35,000 -337 Level FlightAware ADS-B
Sun 11:13:19 AM -21.8100 -47.6600 142° Southeast 460 529 34,500 -1,364 Descending FlightAware ADS-B
Sun 11:14:07 AM -21.8900 -47.5930 142° Southeast 450 518 33,000 -1,880 Descending FlightAware ADS-B
Sun 11:14:42 AM -21.9460 -47.5450 142° Southeast 440 506 31,900 -1,750 Descending FlightAware ADS-B
Sun 11:15:19 AM -22.0050 -47.4960 142° Southeast 431 496 30,900 -1,726 Descending FlightAware ADS-B
Sun 11:15:55 AM -22.0610 -47.4480 142° Southeast 423 487 29,800 -1,833 Descending FlightAware ADS-B
Sun 11:16:31 AM -22.1170 -47.4000 142° Southeast 420 483 28,700 -1,726 Descending FlightAware ADS-B
Sun 11:17:08 AM -22.1730 -47.3530 142° Southeast 430 495 27,700 -1,658 Descending FlightAware ADS-B
Sun 11:17:47 AM -22.2340 -47.3010 142° Southeast 439 505 26,600 -1,735 Descending FlightAware ADS-B
Sun 11:18:31 AM -22.3050 -47.2400 142° Southeast 431 496 25,300 -1,733 Descending FlightAware ADS-B
Sun 11:19:17 AM -22.3740 -47.1820 142° Southeast 427 491 24,000 -1,518 Descending FlightAware ADS-B
Sun 11:19:54 AM -22.4320 -47.1330 142° Southeast 410 472 23,200 -1,147 Descending FlightAware ADS-B
Sun 11:20:25 AM -22.4660 -47.1040 142° Southeast 372 428 22,700 -2,026 Descending FlightAware ADS-B
Sun 11:21:11 AM -22.5370 -47.0430 142° Southeast 350 403 20,600 -2,143 Descending FlightAware ADS-B
Sun 11:21:49 AM -22.5840 -47.0090 146° Southeast 308 354 19,700 -2,077 Descending FlightAware ADS-B
Sun 11:22:29 AM -22.6380 -46.9780 152° Southeast 322 371 17,900 -2,093 Descending FlightAware ADS-B
Sun 11:23:15 AM -22.6970 -46.9440 152° Southeast 319 367 16,700 -1,671 Descending FlightAware ADS-B
Sun 11:23:48 AM -22.7410 -46.9190 152° Southeast 320 368 15,700 -1,417 Descending FlightAware ADS-B
Sun 11:24:27 AM -22.7880 -46.8920 152° Southeast 317 365 15,000 -1,184 Descending FlightAware ADS-B
Sun 11:25:04 AM -22.8390 -46.8600 150° Southeast 321 369 14,200 -1,333 Descending FlightAware ADS-B
Sun 11:25:48 AM -22.8840 -46.8090 134° Southeast 317 365 13,200 -1,404 Descending FlightAware ADS-B
Sun 11:26:38 AM -22.9380 -46.7540 137° Southeast 316 364 12,000 -1,379 Descending FlightAware ADS-B
Sun 11:27:15 AM -22.9760 -46.7150 137° Southeast 314 361 11,200 -1,263 Descending FlightAware ADS-B
Sun 11:27:54 AM -23.0170 -46.6730 137° Southeast 310 357 10,400 -1,317 Descending FlightAware ADS-B
Sun 11:28:37 AM -23.0630 -46.6280 138° Southeast 311 358 9,400 -1,125 Descending FlightAware ADS-B
Sun 11:29:14 AM -23.1010 -46.5890 137° Southeast 292 336 8,900 -320 Descending FlightAware ADS-B
Sun 11:29:52 AM -23.1360 -46.5530 137° Southeast 251 289 9,000 -444 Climbing FlightAware ADS-B
Sun 11:30:35 AM -23.1690 -46.5170 135° Southeast 245 282 8,300 -1,297 Descending FlightAware ADS-B
Sun 11:31:06 AM -23.1840 -46.4870 119° Southeast 252 290 7,400 -1,500 Descending FlightAware ADS-B
Sun 11:31:47 AM -23.2070 -46.4380 117° Southeast 244 281 6,500 -1,254 Descending FlightAware ADS-B
Sun 11:32:13 AM -23.2210 -46.4100 119° Southeast 239 275 6,000 -492 Descending FlightAware ADS-B
Sun 11:32:48 AM -23.2380 -46.3750 118° Southeast 237 273 6,000  Level FlightAware ADS-B
Sun 11:33:18 AM -23.2540 -46.3420 118° Southeast 227 261 6,000  Level FlightAware ADS-B
Sun 11:33:53 AM -23.2720 -46.3060 119° Southeast 225 259 6,000 -514 Level FlightAware ADS-B
Sun 11:34:28 AM -23.2890 -46.2720 119° Southeast 211 243 5,400 -923 Descending FlightAware ADS-B
Sun 11:34:58 AM -23.3030 -46.2450 119° Southeast 211 243 5,000 -343 Descending FlightAware ADS-B
Sun 11:35:38 AM -23.3320 -46.2180 139° Southeast 197 227 5,000  Level FlightAware ADS-B
Sun 11:36:13 AM -23.3520 -46.2320 213° Southwest 185 213 5,000  Level FlightAware ADS-B
Sun 11:36:51 AM -23.3690 -46.2610 237° Southwest 171 197 5,000  Level FlightAware ADS-B
Sun 11:37:37 AM -23.3870 -46.2950 240° Southwest 171 197 5,000 -80 Level FlightAware ADS-B
Sun 11:38:06 AM -23.3950 -46.3240 253° West 179 206 4,900 -609 Descending FlightAware ADS-B
Sun 11:38:46 AM -23.4030 -46.3550 254° West 169 194 4,300 -828 Descending FlightAware ADS-B
Sun 11:39:33 AM -23.4130 -46.3910 253° West 163 188 3,700 -866 Descending FlightAware ADS-B
Sun 11:40:23 AM -23.4250 -46.4350 253° West 168 193 2,900 -789 Descending FlightAware ADS-B
Sun 11:40:49 AM -23.4270 -46.4450 258° West 167 192 2,700 -462 Descending FlightAware ADS-B
Sun 11:41:23 AM -23.4360 -46.4770 253° West 105 121 -4,765 Descending FlightAware ADS-B

Login

Don't have an account? Register now (free) for customized features, flight alerts, and more!